Time;durP1;ratioP1;P1;durP2;ratioP2;P2;SDS_P1;SDS_P2;PMS_P1;PMS_P2;Temp;Humidity;BMP_temperature;BMP_pressure;BME280_temperature;BME280_humidity;BME280_pressure;Samples;Min_cycle;Max_cycle;Signal;HPM_P1;HPM_P2
2021/06/05 00:00:00;;;;;;;11.30;7.73;;;;;;;14.40;80.08;101509.75;4978198;28;20228;-70
2021/06/05 00:02:28;;;;;;;10.63;8.13;;;;;;;14.26;81.21;101507.03;4979718;28;20249;-70
2021/06/05 00:04:57;;;;;;;11.97;7.10;;;;;;;14.18;81.33;101514.66;4978180;28;20200;-70
2021/06/05 00:07:23;;;;;;;9.60;7.00;;;;;;;14.07;81.63;101513.44;4978030;28;20261;-71
2021/06/05 00:09:49;;;;;;;14.70;8.07;;;;;;;14.09;81.92;101513.34;4977784;28;20254;-71
2021/06/05 00:12:16;;;;;;;10.23;8.10;;;;;;;14.07;81.93;101518.78;4978542;28;20217;-71
2021/06/05 00:14:42;;;;;;;10.43;7.20;;;;;;;14.10;81.35;101509.69;4978523;28;20193;-71
2021/06/05 00:17:07;;;;;;;11.23;7.40;;;;;;;14.06;81.54;101500.97;4995498;28;20186;-71
2021/06/05 00:19:32;;;;;;;11.60;7.40;;;;;;;14.21;80.83;101509.97;4977727;28;20182;-70
2021/06/05 00:21:57;;;;;;;10.53;7.73;;;;;;;14.05;81.26;101509.97;4977989;28;20240;-70
2021/06/05 00:24:23;;;;;;;8.97;7.97;;;;;;;14.01;81.51;101505.72;4977590;28;20300;-71
2021/06/05 00:26:50;;;;;;;13.27;8.50;;;;;;;13.99;81.83;101509.44;4994217;28;20182;-71
2021/06/05 00:29:15;;;;;;;8.77;7.87;;;;;;;14.21;80.81;101487.63;4977568;28;20173;-71
2021/06/05 00:31:41;;;;;;;9.87;7.53;;;;;;;14.43;79.91;101495.31;4977086;28;20240;-71
2021/06/05 00:34:06;;;;;;;11.43;7.70;;;;;;;14.59;78.52;101493.50;4976971;28;20194;-71
2021/06/05 00:36:31;;;;;;;10.53;7.00;;;;;;;14.66;78.26;101492.16;4993838;28;20174;-71
2021/06/05 00:38:57;;;;;;;12.93;7.50;;;;;;;14.59;78.41;101474.69;4977758;28;20189;-71
2021/06/05 00:41:25;;;;;;;9.70;7.43;;;;;;;14.40;79.21;101490.97;4977740;28;20180;-71
2021/06/05 00:43:52;;;;;;;12.97;7.93;;;;;;;14.20;80.21;101485.91;4994483;28;20344;-71
2021/06/05 00:46:22;;;;;;;8.50;7.60;;;;;;;13.91;81.42;101485.75;4977390;28;20542;-71
2021/06/05 00:48:47;;;;;;;10.53;7.43;;;;;;;13.73;81.93;101482.25;4994640;28;20539;-71
2021/06/05 00:51:12;;;;;;;9.77;8.03;;;;;;;13.63;82.39;101481.03;4960699;28;20173;-71
2021/06/05 00:53:38;;;;;;;12.60;8.13;;;;;;;13.59;82.88;101479.47;4977021;28;20173;-71
2021/06/05 00:56:05;;;;;;;14.03;8.50;;;;;;;13.55;83.39;101485.09;4976641;28;20204;-71
2021/06/05 00:58:31;;;;;;;10.30;8.03;;;;;;;13.58;83.20;101488.47;4960851;28;20205;-72
2021/06/05 01:01:05;;;;;;;11.83;8.57;;;;;;;13.59;83.61;101478.63;4976809;28;20220;-71
2021/06/05 01:03:36;;;;;;;10.33;7.83;;;;;;;13.56;83.15;101482.34;4994420;28;20255;-70
2021/06/05 01:06:07;;;;;;;9.90;8.23;;;;;;;13.43;84.03;101489.34;4976362;28;20201;-71
2021/06/05 01:08:40;;;;;;;9.50;8.50;;;;;;;13.48;83.35;101484.59;4976312;28;20162;-71
2021/06/05 01:11:34;;;;;;;9.90;8.40;;;;;;;13.65;83.05;101479.13;4976373;28;20161;-71
2021/06/05 01:14:06;;;;;;;12.00;9.73;;;;;;;13.55;83.58;101485.09;4993674;28;20158;-71
2021/06/05 01:16:32;;;;;;;11.50;10.37;;;;;;;13.48;83.97;101481.03;4959891;28;20268;-71
2021/06/05 01:19:04;;;;;;;11.73;9.60;;;;;;;13.39;82.99;101482.41;4993785;28;20204;-71
2021/06/05 01:21:51;;;;;;;12.70;9.30;;;;;;;13.35;83.51;101486.19;4993492;28;20623;-71
2021/06/05 01:24:28;;;;;;;11.10;9.63;;;;;;;13.48;82.87;101481.03;4993571;28;20292;-69
2021/06/05 01:27:00;;;;;;;10.80;9.27;;;;;;;13.37;83.15;101485.13;4976557;28;20569;-70
2021/06/05 01:29:34;;;;;;;14.17;10.50;;;;;;;13.28;84.39;101485.66;4960137;28;20216;-71
2021/06/05 01:32:04;;;;;;;11.03;9.77;;;;;;;13.13;84.76;101487.31;4976430;28;20217;-70
2021/06/05 01:34:38;;;;;;;12.70;9.37;;;;;;;13.10;85.31;101491.97;4959702;28;20251;-71
2021/06/05 01:37:07;;;;;;;13.57;9.63;;;;;;;12.98;85.92;101495.28;4978017;28;20693;-70
2021/06/05 01:39:35;;;;;;;18.13;9.97;;;;;;;12.80;87.28;101483.72;4979759;28;20178;-70
2021/06/05 01:42:04;;;;;;;13.73;10.80;;;;;;;12.84;86.84;101488.84;4980907;28;20196;-70
2021/06/05 01:44:32;;;;;;;13.83;9.93;;;;;;;12.84;86.81;101480.78;4984564;22;20256;-69
2021/06/05 01:46:57;;;;;;;11.90;9.07;;;;;;;12.85;86.55;101481.66;5000953;28;20523;-70
2021/06/05 01:49:23;;;;;;;11.47;9.10;;;;;;;12.94;86.04;101485.66;5019947;28;20235;-70
2021/06/05 01:51:51;;;;;;;12.77;9.93;;;;;;;13.08;85.69;101477.78;5002223;28;20596;-70
2021/06/05 01:54:21;;;;;;;11.97;9.20;;;;;;;13.00;85.56;101475.50;5002346;28;20191;-70
2021/06/05 01:56:52;;;;;;;12.83;11.23;;;;;;;12.98;85.29;101473.84;5001992;28;20185;-69
2021/06/05 01:59:18;;;;;;;10.97;9.17;;;;;;;13.01;85.37;101468.34;5002169;28;20172;-69
2021/06/05 02:01:44;;;;;;;11.80;10.30;;;;;;;13.04;85.87;101470.88;5019424;28;20180;-69
2021/06/05 02:04:11;;;;;;;16.70;10.37;;;;;;;12.92;86.06;101474.16;4985552;28;20201;-70
2021/06/05 02:06:37;;;;;;;10.97;9.87;;;;;;;12.84;86.68;101471.91;5019556;28;20193;-69
2021/06/05 02:09:05;;;;;;;15.57;10.63;;;;;;;12.79;87.12;101471.28;5001886;28;20176;-68
2021/06/05 02:11:31;;;;;;;12.27;10.07;;;;;;;12.72;86.45;101470.72;5019664;28;20181;-69
2021/06/05 02:14:07;;;;;;;12.43;10.43;;;;;;;12.58;86.90;101473.22;5002248;28;20640;-69
2021/06/05 02:16:38;;;;;;;13.20;9.87;;;;;;;12.66;87.03;101460.34;5002419;28;20283;-70
2021/06/05 02:19:11;;;;;;;10.80;9.60;;;;;;;12.68;86.68;101469.16;5002671;28;20227;-69
2021/06/05 02:21:40;;;;;;;13.40;10.83;;;;;;;12.68;86.11;101473.66;5002364;28;20165;-69
2021/06/05 02:24:10;;;;;;;11.90;9.13;;;;;;;12.66;86.01;101465.69;5009295;28;20197;-70
2021/06/05 02:26:39;;;;;;;11.13;8.80;;;;;;;12.66;84.33;101465.69;4986581;28;20266;-70
2021/06/05 02:29:05;;;;;;;13.53;9.73;;;;;;;12.52;85.74;101463.69;5002064;28;20184;-69
2021/06/05 02:31:31;;;;;;;11.60;9.33;;;;;;;12.48;85.18;101475.50;5001984;28;20545;-70
2021/06/05 02:33:58;;;;;;;10.30;8.73;;;;;;;12.44;85.79;101467.72;5019592;28;20181;-70
2021/06/05 02:36:23;;;;;;;10.97;8.83;;;;;;;12.41;85.96;101467.88;5002127;28;20600;-69
2021/06/05 02:38:49;;;;;;;11.50;9.70;;;;;;;12.51;85.76;101467.31;5020345;28;20324;-69
2021/06/05 02:41:17;;;;;;;13.17;11.07;;;;;;;12.65;84.98;101469.31;5002418;28;20248;-70
2021/06/05 02:43:44;;;;;;;16.27;10.37;;;;;;;12.86;84.84;101461.97;5001379;28;20201;-70
2021/06/05 02:46:15;;;;;;;11.63;10.30;;;;;;;12.71;84.99;101460.97;5001678;28;20219;-70
2021/06/05 02:48:46;;;;;;;14.87;11.67;;;;;;;12.52;86.28;101458.34;5019628;28;20165;-69
2021/06/05 02:51:12;;;;;;;14.83;11.00;;;;;;;12.49;87.33;101454.97;5019280;28;20161;-69
2021/06/05 02:53:38;;;;;;;13.57;11.77;;;;;;;12.50;86.51;101444.19;5001599;28;20260;-69
2021/06/05 02:56:04;;;;;;;12.40;10.50;;;;;;;12.50;87.03;101445.97;5018912;28;20229;-69
2021/06/05 02:58:29;;;;;;;11.47;9.90;;;;;;;12.70;85.63;101435.13;5016048;28;20584;-69
2021/06/05 03:00:55;;;;;;;14.70;9.57;;;;;;;12.99;84.00;101428.19;5016144;28;20177;-68
2021/06/05 03:03:22;;;;;;;9.97;8.83;;;;;;;13.25;82.68;101431.34;5015716;28;20226;-68
2021/06/05 03:05:49;;;;;;;9.57;8.20;;;;;;;13.45;81.52;101437.34;4998543;28;20209;-70
2021/06/05 03:08:18;;;;;;;13.90;8.50;;;;;;;13.44;81.58;101440.13;4998204;28;20177;-69
2021/06/05 03:10:44;;;;;;;19.77;8.40;;;;;;;12.98;79.60;101445.22;5015601;28;20177;-69
2021/06/05 03:13:10;;;;;;;8.10;7.30;;;;;;;12.56;81.09;101442.97;4998110;28;20169;-69
2021/06/05 03:15:37;;;;;;;11.43;6.67;;;;;;;12.47;81.34;101444.34;5015759;28;20545;-69
2021/06/05 03:18:02;;;;;;;8.80;7.50;;;;;;;12.13;84.29;101455.00;4997894;28;20215;-70
2021/06/05 03:20:35;;;;;;;13.90;9.03;;;;;;;12.05;86.14;101451.84;4998702;28;20243;-70
2021/06/05 03:23:01;;;;;;;14.57;11.97;;;;;;;12.21;88.14;101459.03;4998030;28;20201;-69
2021/06/05 03:25:26;;;;;;;11.63;10.33;;;;;;;12.23;87.53;101461.63;5015433;28;20212;-69
2021/06/05 03:27:51;;;;;;;10.80;9.70;;;;;;;12.24;86.79;101454.44;5015671;28;20589;-69
2021/06/05 03:30:18;;;;;;;12.03;10.87;;;;;;;12.29;86.30;101460.47;4998112;28;20653;-69
2021/06/05 03:32:43;;;;;;;13.97;10.63;;;;;;;12.38;87.13;101473.38;4997886;28;20264;-70
2021/06/05 03:35:10;;;;;;;17.67;9.70;;;;;;;12.44;85.52;101475.75;5015331;28;20240;-69
2021/06/05 03:37:35;;;;;;;14.00;10.50;;;;;;;12.44;86.14;101465.03;5015596;28;20180;-67
2021/06/05 03:40:01;;;;;;;11.73;9.70;;;;;;;12.56;84.52;101476.94;5015243;28;20231;-69
2021/06/05 03:42:26;;;;;;;10.83;8.20;;;;;;;12.53;83.51;101469.91;4997629;28;20254;-69
2021/06/05 03:44:55;;;;;;;9.90;8.87;;;;;;;12.50;83.94;101475.44;4997619;28;20215;-69
2021/06/05 03:47:22;;;;;;;9.70;8.70;;;;;;;12.58;84.76;101481.25;5015045;28;20164;-70
2021/06/05 03:49:48;;;;;;;12.17;8.37;;;;;;;12.70;83.22;101475.31;4997619;28;20582;-70
2021/06/05 03:52:13;;;;;;;10.80;9.63;;;;;;;12.68;81.62;101479.00;5015211;28;20235;-69
2021/06/05 03:54:38;;;;;;;10.87;9.30;;;;;;;12.61;82.66;101473.06;4981069;28;20255;-69
2021/06/05 03:57:04;;;;;;;11.83;9.13;;;;;;;12.62;82.69;101466.75;5015580;28;20553;-69
2021/06/05 03:59:29;;;;;;;9.93;8.90;;;;;;;12.71;83.12;101471.66;4997290;28;20675;-69
2021/06/05 04:01:55;;;;;;;11.33;8.57;;;;;;;13.07;83.09;101468.00;5015131;28;20280;-69
2021/06/05 04:04:22;;;;;;;11.33;8.07;;;;;;;13.23;81.24;101455.53;5014714;28;20205;-69
2021/06/05 04:06:47;;;;;;;9.63;8.30;;;;;;;13.41;80.88;101467.09;4997469;28;20192;-69
2021/06/05 04:09:12;;;;;;;12.57;9.90;;;;;;;13.21;81.88;101462.81;5014673;28;20641;-69
2021/06/05 04:11:38;;;;;;;10.00;9.00;;;;;;;13.16;82.69;101467.50;5014524;28;20181;-69
2021/06/05 04:14:05;;;;;;;15.20;9.90;;;;;;;13.01;83.47;101466.53;5015430;28;20176;-70
2021/06/05 04:16:30;;;;;;;10.43;9.23;;;;;;;13.02;83.87;101467.41;4981049;28;20295;-69
2021/06/05 04:18:56;;;;;;;13.63;9.30;;;;;;;13.03;83.24;101470.00;4996988;28;20229;-69
2021/06/05 04:21:22;;;;;;;14.50;10.50;;;;;;;13.01;83.75;101468.34;4997120;28;20260;-69
2021/06/05 04:23:48;;;;;;;12.23;9.90;;;;;;;13.07;83.60;101476.06;4980169;28;20208;-69
2021/06/05 04:26:13;;;;;;;9.63;8.73;;;;;;;13.24;81.94;101470.69;5014107;28;20700;-69
2021/06/05 04:28:40;;;;;;;8.90;8.00;;;;;;;13.30;80.48;101472.16;4996542;28;20633;-69
2021/06/05 04:31:07;;;;;;;11.33;8.97;;;;;;;13.49;80.62;101469.34;4997018;28;20185;-69
2021/06/05 04:33:32;;;;;;;11.07;9.57;;;;;;;13.48;80.43;101471.16;4980214;28;20173;-69
2021/06/05 04:35:59;;;;;;;10.60;9.50;;;;;;;13.65;79.80;101483.63;4996409;28;20196;-69
2021/06/05 04:38:24;;;;;;;8.40;7.60;;;;;;;13.77;79.22;101478.47;4996416;28;20203;-68
2021/06/05 04:40:50;;;;;;;11.30;8.67;;;;;;;13.89;78.82;101473.38;5013931;28;20669;-69
2021/06/05 04:43:17;;;;;;;10.17;7.90;;;;;;;13.91;78.46;101469.63;5013690;28;20197;-69
2021/06/05 04:45:43;;;;;;;11.90;7.90;;;;;;;13.97;78.03;101471.97;4996492;28;20209;-68
2021/06/05 04:48:09;;;;;;;8.73;7.83;;;;;;;14.13;77.47;101474.66;5014307;28;20184;-69
2021/06/05 04:50:36;;;;;;;8.53;7.47;;;;;;;14.25;76.89;101481.13;5014415;28;20177;-69
2021/06/05 04:53:02;;;;;;;7.47;6.70;;;;;;;14.40;76.59;101482.91;4996482;28;20625;-69
2021/06/05 04:55:28;;;;;;;10.43;7.83;;;;;;;14.49;74.75;101486.91;5014027;28;20200;-69
2021/06/05 04:57:54;;;;;;;7.83;7.03;;;;;;;14.38;75.96;101485.69;4996591;28;20184;-69
2021/06/05 05:00:27;;;;;;;7.03;6.33;;;;;;;14.63;75.05;101484.28;4980024;28;20176;-68
2021/06/05 05:02:52;;;;;;;10.17;6.77;;;;;;;14.79;74.36;101489.59;4996286;28;20203;-68
2021/06/05 05:05:17;;;;;;;10.67;8.60;;;;;;;14.58;74.46;101481.88;4980015;28;20193;-67
2021/06/05 05:07:46;;;;;;;8.20;7.30;;;;;;;14.77;74.18;101486.13;5014453;28;20588;-68
2021/06/05 05:10:12;;;;;;;8.60;6.83;;;;;;;14.84;74.26;101488.34;4995984;28;20227;-68
2021/06/05 05:12:37;;;;;;;7.83;7.03;;;;;;;14.93;74.12;101487.81;4995927;28;20189;-68
2021/06/05 05:15:03;;;;;;;8.43;7.50;;;;;;;15.07;73.00;101492.34;5013625;28;20201;-68
2021/06/05 05:17:33;;;;;;;8.30;7.50;;;;;;;15.14;73.23;101495.53;4979417;28;20208;-68
2021/06/05 05:19:58;;;;;;;7.90;6.23;;;;;;;15.24;73.23;101491.31;5013299;28;20173;-68
2021/06/05 05:22:23;;;;;;;7.53;6.73;;;;;;;15.38;72.74;101494.00;5013488;28;20207;-69
2021/06/05 05:24:49;;;;;;;6.93;6.23;;;;;;;15.48;72.72;101489.78;4995831;28;20204;-69
2021/06/05 05:27:14;;;;;;;6.97;6.27;;;;;;;15.63;72.45;101496.06;4995962;28;20211;-70
2021/06/05 05:29:39;;;;;;;7.80;7.00;;;;;;;15.76;72.00;101491.63;5013495;28;20235;-69
2021/06/05 05:32:05;;;;;;;7.23;6.50;;;;;;;15.76;72.59;101491.63;4995805;28;20188;-70
2021/06/05 05:34:31;;;;;;;8.87;7.90;;;;;;;15.66;73.18;101495.88;5013366;28;20653;-69
2021/06/05 05:36:56;;;;;;;10.13;6.30;;;;;;;15.83;72.77;101495.63;4995591;28;20189;-69
2021/06/05 05:39:21;;;;;;;10.27;7.73;;;;;;;16.02;71.98;101500.72;5013181;28;20177;-69
2021/06/05 05:41:48;;;;;;;11.20;8.20;;;;;;;16.18;71.60;101479.88;5013846;28;20181;-69
2021/06/05 05:44:14;;;;;;;8.87;6.60;;;;;;;16.23;71.56;101484.97;5013644;28;20285;-70
2021/06/05 05:46:40;;;;;;;8.73;7.00;;;;;;;16.30;71.29;101486.28;4995575;28;20641;-69
2021/06/05 05:49:05;;;;;;;9.60;7.60;;;;;;;16.18;72.61;101492.47;5013424;28;20181;-69
2021/06/05 05:51:31;;;;;;;11.90;8.00;;;;;;;16.40;71.68;101484.72;4995776;28;20176;-69
2021/06/05 05:53:57;;;;;;;8.20;7.00;;;;;;;16.40;72.25;101484.72;5013546;28;20165;-69
2021/06/05 05:56:25;;;;;;;8.70;7.80;;;;;;;16.66;71.73;101479.41;5013203;28;20196;-69
2021/06/05 05:58:51;;;;;;;9.87;7.63;;;;;;;16.78;70.91;101484.84;4996115;28;20209;-68
2021/06/05 06:01:20;;;;;;;11.57;7.77;;;;;;;16.87;71.20;101484.22;4995831;28;20176;-68
2021/06/05 06:03:46;;;;;;;9.37;7.47;;;;;;;17.04;70.76;101490.25;5014370;28;20283;-69
2021/06/05 06:06:11;;;;;;;8.70;7.10;;;;;;;17.12;70.98;101490.59;4995688;28;20188;-69
2021/06/05 06:08:37;;;;;;;7.97;6.40;;;;;;;17.13;70.89;101485.09;5013627;28;20214;-69
2021/06/05 06:11:04;;;;;;;8.40;7.13;;;;;;;17.16;71.51;101490.28;4995531;28;20184;-68
2021/06/05 06:13:29;;;;;;;11.50;7.17;;;;;;;17.27;71.37;101483.25;4995594;28;20652;-68
2021/06/05 06:15:54;;;;;;;8.27;7.30;;;;;;;17.53;70.99;101487.69;5012926;28;20197;-68
2021/06/05 06:18:20;;;;;;;9.30;7.40;;;;;;;17.76;69.99;101489.59;4995307;28;20181;-69
2021/06/05 06:20:48;;;;;;;11.37;8.27;;;;;;;17.93;69.21;101482.13;5013498;28;20181;-69
2021/06/05 06:23:17;;;;;;;11.27;8.37;;;;;;;18.01;69.53;101479.69;4995407;28;20208;-68
2021/06/05 06:25:43;;;;;;;8.57;7.67;;;;;;;18.12;69.19;101485.16;4995385;28;20193;-68
2021/06/05 06:28:11;;;;;;;11.43;7.47;;;;;;;18.15;69.33;101475.97;4995844;28;20177;-68
2021/06/05 06:30:37;;;;;;;9.53;7.50;;;;;;;18.19;69.79;101483.72;4995410;28;20177;-69
2021/06/05 06:33:04;;;;;;;9.77;7.17;;;;;;;18.23;69.35;101481.69;4995852;28;20608;-68
2021/06/05 06:35:31;;;;;;;8.30;7.50;;;;;;;18.43;69.14;101483.75;4982709;28;20203;-69
2021/06/05 06:37:56;;;;;;;9.43;8.10;;;;;;;18.53;68.93;101489.31;4982875;28;20300;-68
2021/06/05 06:40:24;;;;;;;9.90;7.40;;;;;;;18.65;68.32;101481.16;5016911;28;20177;-69
2021/06/05 06:42:49;;;;;;;9.93;7.40;;;;;;;18.69;68.51;101484.50;4998937;28;20193;-68
2021/06/05 06:45:15;;;;;;;9.87;7.17;;;;;;;18.85;68.37;101485.03;4998787;28;20216;-68
2021/06/05 06:47:41;;;;;;;12.73;7.50;;;;;;;18.95;68.14;101488.75;5016783;28;20184;-69
2021/06/05 06:50:07;;;;;;;12.83;7.17;;;;;;;19.08;67.47;101493.22;4999585;28;20177;-69
2021/06/05 06:52:33;;;;;;;13.03;7.30;;;;;;;19.20;67.02;101494.94;4998604;28;20173;-69
2021/06/05 06:54:58;;;;;;;9.43;6.87;;;;;;;19.29;66.19;101500.50;5016315;28;20276;-69
2021/06/05 06:57:24;;;;;;;8.83;6.37;;;;;;;19.28;66.07;101487.06;4998678;28;20180;-69
2021/06/05 06:59:49;;;;;;;8.23;6.93;;;;;;;19.35;65.32;101489.19;5016526;28;20537;-70
2021/06/05 07:02:14;;;;;;;12.33;7.77;;;;;;;19.50;64.65;101497.06;5016304;28;20231;-69
2021/06/05 07:04:40;;;;;;;9.77;7.37;;;;;;;19.50;64.25;101497.94;4999121;28;20216;-69
2021/06/05 07:07:06;;;;;;;11.10;7.00;;;;;;;19.63;63.04;101496.00;5016806;28;20226;-69
2021/06/05 07:09:32;;;;;;;8.90;7.00;;;;;;;19.81;62.78;101496.38;4998978;28;20208;-69
2021/06/05 07:11:58;;;;;;;24.20;8.90;;;;;;;19.86;63.26;101496.00;5016534;28;20181;-70
2021/06/05 07:14:23;;;;;;;7.97;5.63;;;;;;;20.09;59.83;101499.53;4998717;28;20648;-69
2021/06/05 07:16:49;;;;;;;15.50;10.47;;;;;;;20.20;59.56;101494.94;5016485;28;20200;-69
2021/06/05 07:19:14;;;;;;;5.77;4.90;;;;;;;20.38;58.69;101487.09;4998563;28;20557;-69
2021/06/05 07:21:40;;;;;;;8.47;5.10;;;;;;;20.55;58.55;101496.59;5016039;28;20177;-70
2021/06/05 07:24:05;;;;;;;9.67;5.23;;;;;;;20.69;58.65;101490.84;5016580;28;20564;-69
2021/06/05 07:26:31;;;;;;;5.80;4.67;;;;;;;20.90;57.48;101497.16;4998997;28;20201;-70
2021/06/05 07:29:00;;;;;;;7.90;5.17;;;;;;;20.92;56.70;101494.31;4982787;28;20177;-70
2021/06/05 07:31:30;;;;;;;7.50;4.90;;;;;;;21.01;57.47;101495.38;5015993;28;20177;-68
2021/06/05 07:33:56;;;;;;;5.40;4.77;;;;;;;20.89;57.21;101490.00;5015613;28;20541;-69
2021/06/05 07:36:27;;;;;;;7.63;4.23;;;;;;;21.21;56.41;101494.50;5015763;28;20201;-68
2021/06/05 07:38:53;;;;;;;10.53;4.90;;;;;;;21.38;55.64;101490.34;4998253;28;20243;-69
2021/06/05 07:41:19;;;;;;;4.80;4.13;;;;;;;21.37;54.78;101486.75;5015419;28;20199;-69
2021/06/05 07:43:45;;;;;;;10.97;4.97;;;;;;;21.42;54.64;101479.06;4980903;28;20254;-69
2021/06/05 07:46:10;;;;;;;10.37;7.13;;;;;;;21.43;54.80;101488.94;5038056;22;20324;-71
2021/06/05 07:48:36;;;;;;;7.67;5.37;;;;;;;21.48;54.48;101485.81;5016047;28;20187;-72
2021/06/05 07:51:02;;;;;;;7.13;4.93;;;;;;;21.61;54.06;101485.59;4998002;28;20184;-72
2021/06/05 07:53:28;;;;;;;5.77;4.77;;;;;;;21.73;53.67;101474.47;4998144;28;20533;-73
2021/06/05 07:55:53;;;;;;;6.63;4.30;;;;;;;21.59;55.31;101482.16;4981602;28;20212;-71
2021/06/05 07:58:19;;;;;;;7.13;4.40;;;;;;;21.72;54.56;101480.06;4998096;28;20185;-73
2021/06/05 08:00:44;;;;;;;5.13;4.33;;;;;;;21.91;52.92;101474.66;5016265;28;20188;-72
2021/06/05 08:03:09;;;;;;;8.10;4.70;;;;;;;21.88;53.02;101472.22;4998303;28;20737;-71
2021/06/05 08:05:37;;;;;;;6.33;4.40;;;;;;;21.90;53.18;101477.53;5015568;28;20208;-72
2021/06/05 08:08:03;;;;;;;8.30;5.10;;;;;;;21.93;53.70;101469.97;4999095;28;20172;-72
2021/06/05 08:10:29;;;;;;;5.53;4.77;;;;;;;22.08;53.86;101474.03;5017845;28;20181;-73
2021/06/05 08:12:55;;;;;;;4.63;4.17;;;;;;;22.22;54.13;101463.75;4982405;28;20184;-70
2021/06/05 08:15:24;;;;;;;5.37;4.33;;;;;;;22.26;53.10;101470.63;5025595;28;20192;-70
2021/06/05 08:17:50;;;;;;;7.50;4.67;;;;;;;22.24;53.10;101467.19;5026890;28;20215;-72
2021/06/05 08:20:18;;;;;;;6.30;4.73;;;;;;;22.39;52.61;101466.66;4990531;28;20208;-71
2021/06/05 08:22:43;;;;;;;7.17;5.30;;;;;;;22.32;53.69;101454.63;4997257;28;20693;-71
2021/06/05 08:25:09;;;;;;;6.83;5.30;;;;;;;22.42;53.06;101463.63;4980822;28;20204;-70
2021/06/05 08:27:37;;;;;;;5.87;4.53;;;;;;;22.45;52.29;101467.94;5014567;28;20247;-72
2021/06/05 08:30:04;;;;;;;5.07;3.73;;;;;;;22.68;51.43;101455.78;4997264;28;20267;-71
2021/06/05 08:32:29;;;;;;;9.80;5.00;;;;;;;22.71;50.03;101451.91;5014265;28;20188;-71
2021/06/05 08:34:54;;;;;;;6.60;4.50;;;;;;;22.75;50.49;101456.91;5014667;28;20177;-72
2021/06/05 08:37:20;;;;;;;4.87;3.60;;;;;;;22.90;50.19;101453.75;4997028;28;20191;-73
2021/06/05 08:39:45;;;;;;;6.83;4.27;;;;;;;22.97;49.64;101461.19;5014422;28;20645;-71
2021/06/05 08:42:18;;;;;;;5.20;4.30;;;;;;;23.17;47.84;101452.97;4996813;28;20177;-72
2021/06/05 08:44:44;;;;;;;11.67;4.03;;;;;;;23.12;48.71;101447.97;4980289;28;20180;-72
2021/06/05 08:47:28;;;;;;;8.03;4.57;;;;;;;22.88;50.09;101451.19;4996539;28;20216;-72
2021/06/05 08:49:53;;;;;;;4.53;3.77;;;;;;;23.06;49.53;101456.75;5014373;28;20256;-71
2021/06/05 08:52:26;;;;;;;5.97;4.40;;;;;;;23.00;46.54;101451.88;4996775;28;20256;-71
2021/06/05 08:55:26;;;;;;;4.27;3.40;;;;;;;23.33;45.03;101445.88;5014584;28;20195;-72
2021/06/05 08:58:17;;;;;;;7.20;4.30;;;;;;;23.12;46.32;101447.97;5013811;28;20699;-72
2021/06/05 09:00:46;;;;;;;7.63;4.33;;;;;;;23.19;46.69;101442.81;4997495;28;20638;-72
2021/06/05 09:03:18;;;;;;;5.43;4.10;;;;;;;23.66;44.43;101446.34;4996473;28;20565;-70
2021/06/05 09:05:54;;;;;;;6.63;3.90;;;;;;;23.64;44.81;101442.94;4996377;28;20203;-69
2021/06/05 09:08:19;;;;;;;4.63;3.60;;;;;;;23.85;45.83;101451.72;5014451;28;20208;-71
2021/06/05 09:10:46;;;;;;;8.13;3.90;;;;;;;23.92;44.34;101441.91;4979885;28;20215;-71
2021/06/05 09:13:12;;;;;;;4.47;3.67;;;;;;;24.10;42.54;101441.06;4996223;28;20212;-70
2021/06/05 09:15:37;;;;;;;8.50;4.60;;;;;;;23.90;43.75;101449.38;4979816;28;20224;-71
2021/06/05 09:18:09;;;;;;;5.50;4.30;;;;;;;23.30;45.21;101446.19;5013720;28;20173;-71
2021/06/05 09:20:46;;;;;;;5.87;4.33;;;;;;;23.83;44.47;101451.00;4979783;28;20181;-71
2021/06/05 09:23:20;;;;;;;6.53;4.00;;;;;;;23.65;42.75;101445.50;4995714;28;20224;-70
2021/06/05 09:25:45;;;;;;;7.07;4.43;;;;;;;23.68;43.84;101438.88;4995793;28;20230;-70
2021/06/05 09:28:23;;;;;;;8.50;4.97;;;;;;;23.84;44.10;101438.25;4995879;28;20204;-71
2021/06/05 09:30:52;;;;;;;16.23;4.43;;;;;;;23.97;43.29;101438.72;4979665;28;20169;-71
2021/06/05 09:33:29;;;;;;;8.17;4.70;;;;;;;24.00;43.05;101442.00;4995667;28;20208;-71
2021/06/05 09:36:13;;;;;;;5.77;4.27;;;;;;;24.19;41.78;101435.56;4979509;28;20215;-71
2021/06/05 09:38:48;;;;;;;6.63;4.17;;;;;;;24.36;41.58;101439.34;4995954;28;20196;-70
2021/06/05 09:41:21;;;;;;;4.97;4.00;;;;;;;24.70;40.73;101435.88;4979547;28;20248;-71
2021/06/05 09:43:48;;;;;;;5.83;4.13;;;;;;;24.81;39.45;101432.88;5013370;28;20676;-71
2021/06/05 09:46:19;;;;;;;10.00;3.73;;;;;;;24.62;41.37;101432.06;4979476;28;20263;-70
2021/06/05 09:48:48;;;;;;;5.47;3.80;;;;;;;25.16;41.06;101435.56;5013491;28;20187;-70
2021/06/05 09:51:38;;;;;;;9.33;4.50;;;;;;;25.22;40.20;101440.38;4995668;28;20185;-70
2021/06/05 09:54:14;;;;;;;7.03;4.00;;;;;;;24.78;41.40;101438.66;4995653;28;20173;-70
2021/06/05 09:56:43;;;;;;;8.57;4.33;;;;;;;24.79;39.94;101443.97;5013092;28;20192;-71
2021/06/05 09:59:29;;;;;;;5.60;4.43;;;;;;;24.96;40.08;101446.84;4995604;28;20180;-71
2021/06/05 10:02:05;;;;;;;7.17;4.63;;;;;;;25.31;38.92;101437.72;5013185;28;20205;-72
2021/06/05 10:04:34;;;;;;;6.80;4.70;;;;;;;25.36;38.26;101438.94;4995779;28;20196;-71
2021/06/05 10:07:00;;;;;;;8.60;4.27;;;;;;;25.52;38.43;101440.88;4979532;28;20213;-72
2021/06/05 10:09:25;;;;;;;6.00;4.40;;;;;;;25.73;38.99;101427.69;4999657;28;20191;-71
2021/06/05 10:11:53;;;;;;;9.33;4.90;;;;;;;25.92;38.75;101437.47;5017015;28;20199;-70
2021/06/05 10:14:30;;;;;;;8.03;4.40;;;;;;;25.58;38.26;101432.00;4999693;28;20169;-70
2021/06/05 10:17:00;;;;;;;10.23;4.53;;;;;;;25.79;38.09;101429.75;4999413;28;20255;-70
2021/06/05 10:19:38;;;;;;;6.97;4.40;;;;;;;26.11;37.33;101428.13;4983233;28;20177;-70
2021/06/05 10:22:05;;;;;;;6.70;4.27;;;;;;;25.75;38.76;101428.38;4999625;28;20176;-71
2021/06/05 10:24:34;;;;;;;6.07;4.07;;;;;;;26.24;37.79;101423.00;4982999;28;20201;-71
2021/06/05 10:27:05;;;;;;;7.87;5.00;;;;;;;26.31;37.19;101429.53;4999493;28;20193;-71
2021/06/05 10:29:35;;;;;;;8.30;4.40;;;;;;;26.86;36.82;101422.56;4999148;28;20154;-70
2021/06/05 10:32:06;;;;;;;8.57;4.87;;;;;;;26.34;38.32;101414.69;4999226;28;20234;-71
2021/06/05 10:34:44;;;;;;;7.97;4.13;;;;;;;26.25;37.95;101416.53;4998943;28;20533;-71
2021/06/05 10:37:14;;;;;;;7.10;4.27;;;;;;;25.66;38.00;101412.97;4999132;28;20173;-71
2021/06/05 10:39:41;;;;;;;4.37;3.63;;;;;;;26.81;36.98;101411.28;4999715;28;20633;-70
2021/06/05 10:42:12;;;;;;;18.17;4.27;;;;;;;26.97;35.76;101409.34;4999591;28;20173;-70
2021/06/05 10:44:37;;;;;;;9.17;4.10;;;;;;;27.59;33.81;101401.31;4998921;28;20687;-70
2021/06/05 10:47:09;;;;;;;5.83;3.33;;;;;;;27.46;33.78;101405.63;4998468;28;20220;-70
2021/06/05 10:49:39;;;;;;;8.27;3.80;;;;;;;27.95;33.19;101404.41;4982078;28;20231;-70
2021/06/05 10:52:09;;;;;;;6.13;3.50;;;;;;;27.49;32.54;101397.91;4998599;28;20223;-70
2021/06/05 10:54:38;;;;;;;6.73;4.27;;;;;;;27.13;32.86;101400.25;4982328;28;20625;-69
2021/06/05 10:57:25;;;;;;;5.37;3.57;;;;;;;27.06;34.19;101405.59;4982193;28;20277;-69
2021/06/05 10:59:56;;;;;;;6.07;3.70;;;;;;;27.91;32.98;101399.47;4998670;28;20525;-70
2021/06/05 11:02:40;;;;;;;7.97;3.77;;;;;;;28.42;32.34;101397.94;4998485;28;20173;-70
2021/06/05 11:05:32;;;;;;;8.57;3.80;;;;;;;30.45;27.41;101398.22;4982170;28;20197;-70
2021/06/05 11:08:10;;;;;;;6.32;3.33;;;;;;;30.60;27.85;101397.34;4990590;28;20189;-70
2021/06/05 11:11:00;;;;;;;6.07;3.13;;;;;;;32.75;24.91;101396.84;5015982;28;20169;-70
2021/06/05 11:13:31;;;;;;;6.72;3.30;;;;;;;34.28;23.05;101400.00;4998120;28;20215;-69
2021/06/05 11:15:58;;;;;;;6.18;3.08;;;;;;;35.05;22.16;101394.06;5016116;28;20281;-70
2021/06/05 11:18:31;;;;;;;5.70;2.97;;;;;;;34.36;22.59;101397.81;4998150;28;20227;-70
2021/06/05 11:21:00;;;;;;;3.25;2.90;;;;;;;31.89;25.88;101390.31;5016236;28;20166;-72
2021/06/05 11:23:26;;;;;;;6.68;2.97;;;;;;;33.08;23.99;101379.38;4998214;28;20692;-71
2021/06/05 11:25:54;;;;;;;5.38;2.92;;;;;;;34.82;20.98;101379.94;4998819;28;20200;-71